Time;durP1;ratioP1;P1;durP2;ratioP2;P2;SDS_P1;SDS_P2;PMS_P1;PMS_P2;Temp;Humidity;BMP_temperature;BMP_pressure;BME280_temperature;BME280_humidity;BME280_pressure;Samples;Min_cycle;Max_cycle;Signal;HPM_P1;HPM_P2
2021/05/16 00:02:00;;;;;;;11.73;5.10;;;;;;;13.12;92.58;96217.72;4908644;29;20067;-63
2021/05/16 00:04:26;;;;;;;7.15;4.32;;;;;;;13.01;92.66;96216.97;4909144;29;20369;-61
2021/05/16 00:06:53;;;;;;;6.85;4.25;;;;;;;12.48;93.12;96155.31;4908653;29;20036;-61
2021/05/16 00:09:18;;;;;;;6.20;4.53;;;;;;;12.54;93.21;96173.13;4907909;29;20036;-61
2021/05/16 00:11:44;;;;;;;5.32;4.40;;;;;;;12.54;94.04;96164.81;4908539;29;20467;-61
2021/05/16 00:14:10;;;;;;;5.30;3.92;;;;;;;12.88;93.42;96215.81;4908790;29;20051;-62
2021/05/16 00:16:37;;;;;;;7.28;4.47;;;;;;;12.09;94.12;96118.59;4908548;29;20471;-61
2021/05/16 00:19:03;;;;;;;6.53;4.60;;;;;;;12.69;95.96;96233.00;4908306;29;20055;-61
2021/05/16 00:21:28;;;;;;;5.90;3.85;;;;;;;12.15;97.69;96158.63;4906573;29;20869;-63
2021/05/16 00:23:54;;;;;;;7.60;4.82;;;;;;;11.62;97.70;96058.06;4908415;29;20115;-61
2021/05/16 00:26:19;;;;;;;11.90;4.70;;;;;;;12.72;96.63;96226.66;4906761;29;20039;-61
2021/05/16 00:28:45;;;;;;;8.02;4.88;;;;;;;12.81;96.47;96223.41;4906920;29;20039;-63
2021/05/16 00:31:10;;;;;;;9.70;4.53;;;;;;;12.74;96.37;96223.47;4908060;29;20039;-63
2021/05/16 00:33:36;;;;;;;14.93;4.53;;;;;;;12.36;95.63;96141.88;4908454;29;20091;-62
2021/05/16 00:36:01;;;;;;;7.88;4.78;;;;;;;12.70;94.73;96217.91;4907940;29;20056;-63
2021/05/16 00:38:27;;;;;;;5.80;4.40;;;;;;;12.65;94.90;96215.56;4908418;29;20048;-62
2021/05/16 00:40:52;;;;;;;9.32;4.15;;;;;;;12.56;95.60;96223.53;4908024;29;20043;-61
2021/05/16 00:43:18;;;;;;;7.93;4.15;;;;;;;12.52;95.13;96221.97;4908572;29;20552;-62
2021/05/16 00:45:47;;;;;;;6.80;4.32;;;;;;;12.49;95.12;96223.56;4908330;29;20468;-62
2021/05/16 00:48:13;;;;;;;6.72;3.80;;;;;;;12.33;95.19;96234.31;4907043;29;20043;-61
2021/05/16 00:50:42;;;;;;;5.57;3.55;;;;;;;12.27;94.98;96224.00;4906570;29;20059;-62
2021/05/16 00:53:08;;;;;;;5.78;4.00;;;;;;;12.24;95.19;96231.16;4906916;29;20032;-62
2021/05/16 00:55:34;;;;;;;9.45;3.80;;;;;;;12.22;94.65;96243.88;4908322;29;20111;-62
2021/05/16 00:58:01;;;;;;;5.75;4.85;;;;;;;12.15;94.85;96228.03;4908487;29;20555;-62
2021/05/16 01:00:30;;;;;;;12.88;5.20;;;;;;;12.07;95.99;96229.25;4907680;29;20070;-64
2021/05/16 01:02:56;;;;;;;11.30;5.78;;;;;;;11.56;97.13;96192.78;4908400;29;20047;-63
2021/05/16 01:05:21;;;;;;;9.68;6.15;;;;;;;11.75;97.34;96234.03;4906723;29;20483;-62
2021/05/16 01:07:48;;;;;;;13.13;6.45;;;;;;;11.69;97.74;96224.53;4908359;29;20080;-64
2021/05/16 01:10:15;;;;;;;7.30;6.35;;;;;;;10.90;98.12;96127.84;4907581;29;20059;-62
2021/05/16 01:12:46;;;;;;;8.65;6.60;;;;;;;11.46;98.73;96215.78;4906399;29;20044;-62
2021/05/16 01:15:18;;;;;;;10.65;7.30;;;;;;;11.12;99.98;96211.78;4905961;29;20515;-62
2021/05/16 01:17:44;;;;;;;20.85;11.23;;;;;;;11.16;100.00;96209.84;4908079;29;20036;-64
2021/05/16 01:20:19;;;;;;;13.02;9.38;;;;;;;11.37;100.00;96240.31;4907681;29;20046;-62
2021/05/16 01:22:54;;;;;;;10.35;7.32;;;;;;;11.43;100.00;96250.63;4906322;29;20056;-62
2021/05/16 01:25:20;;;;;;;11.10;7.43;;;;;;;10.91;100.00;96154.38;4907377;29;20044;-62
2021/05/16 01:27:46;;;;;;;10.73;6.80;;;;;;;10.93;100.00;96209.38;4906174;29;20040;-62
2021/05/16 01:30:12;;;;;;;7.70;5.93;;;;;;;11.18;100.00;96193.56;4907134;29;20568;-61
2021/05/16 01:32:38;;;;;;;11.98;6.35;;;;;;;11.48;100.00;96243.91;4907624;29;20499;-63
2021/05/16 01:35:04;;;;;;;6.40;5.55;;;;;;;11.53;100.00;96238.78;4907520;29;20036;-61
2021/05/16 01:37:30;;;;;;;7.13;5.70;;;;;;;11.55;100.00;96241.16;4905752;29;20504;-62
2021/05/16 01:39:55;;;;;;;12.88;6.18;;;;;;;11.20;99.65;96185.66;4907778;29;20040;-62
2021/05/16 01:42:22;;;;;;;7.30;5.50;;;;;;;11.63;99.21;96240.00;4907438;29;20119;-62
2021/05/16 01:44:48;;;;;;;10.38;5.80;;;;;;;11.66;98.48;96241.97;4907612;29;20094;-62
2021/05/16 01:47:14;;;;;;;8.85;4.38;;;;;;;11.69;96.70;96241.16;4907377;29;20068;-61
2021/05/16 01:49:43;;;;;;;6.63;4.55;;;;;;;11.70;96.15;96242.75;4907616;29;20543;-61
2021/05/16 01:52:11;;;;;;;8.10;4.45;;;;;;;11.65;95.82;96234.84;4905168;29;20042;-62
2021/05/16 01:54:37;;;;;;;9.15;5.30;;;;;;;11.02;96.48;96159.94;4907432;29;20032;-61
2021/05/16 01:57:04;;;;;;;9.93;4.95;;;;;;;11.25;96.35;96215.78;4907481;29;20060;-62
2021/05/16 01:59:30;;;;;;;6.32;4.13;;;;;;;11.40;96.73;96228.44;4907238;29;20028;-61
2021/05/16 02:01:59;;;;;;;7.32;4.45;;;;;;;10.86;96.86;96156.75;4906739;29;20095;-62
2021/05/16 02:04:29;;;;;;;4.72;3.90;;;;;;;11.49;96.16;96234.41;4907142;29;20039;-63
2021/05/16 02:06:55;;;;;;;6.75;4.18;;;;;;;11.48;96.67;96241.13;4904937;29;20040;-63
2021/05/16 02:09:21;;;;;;;4.53;3.95;;;;;;;11.42;96.27;96231.63;4907143;29;20070;-61
2021/05/16 02:11:48;;;;;;;5.82;3.35;;;;;;;11.32;96.14;96221.31;4906754;29;20067;-60
2021/05/16 02:14:34;;;;;;;5.82;3.45;;;;;;;11.40;95.09;96239.53;4907551;29;20040;-61
2021/05/16 02:17:01;;;;;;;5.82;3.40;;;;;;;11.38;95.30;96234.38;4906486;29;20372;-61
2021/05/16 02:19:27;;;;;;;5.03;3.67;;;;;;;11.40;94.38;96245.09;4907238;29;20396;-61
2021/05/16 02:21:53;;;;;;;4.95;4.00;;;;;;;11.40;94.59;96234.00;4906483;29;20060;-60
2021/05/16 02:24:19;;;;;;;8.05;4.03;;;;;;;11.33;94.76;96243.13;4907273;29;20612;-60
2021/05/16 02:26:45;;;;;;;8.38;3.72;;;;;;;11.25;95.05;96244.28;4906607;29;20048;-61
2021/05/16 02:29:11;;;;;;;5.65;3.90;;;;;;;11.22;94.97;96245.09;4907193;29;20043;-63
2021/05/16 02:31:37;;;;;;;5.45;4.13;;;;;;;11.19;95.60;96232.00;4905565;29;20538;-61
2021/05/16 02:34:04;;;;;;;8.05;4.22;;;;;;;11.23;95.20;96249.44;4906963;29;20028;-61
2021/05/16 02:36:30;;;;;;;6.00;3.72;;;;;;;10.33;95.15;96110.34;4906759;29;20044;-61
2021/05/16 02:38:55;;;;;;;6.72;3.75;;;;;;;11.25;94.62;96251.81;4906988;29;20036;-61
2021/05/16 02:41:21;;;;;;;6.63;3.63;;;;;;;10.83;94.15;96179.69;4905250;29;20427;-61
2021/05/16 02:43:47;;;;;;;5.07;3.60;;;;;;;11.24;93.26;96244.69;4909135;29;20028;-62
2021/05/16 02:46:13;;;;;;;5.95;3.90;;;;;;;11.36;93.91;96255.38;4908618;29;20114;-62
2021/05/16 02:48:38;;;;;;;5.18;3.65;;;;;;;11.42;93.16;96254.59;4910682;29;20040;-62
2021/05/16 02:51:05;;;;;;;5.72;3.75;;;;;;;11.04;92.44;96215.72;4910173;29;20034;-61
2021/05/16 02:53:30;;;;;;;5.15;3.70;;;;;;;11.53;91.57;96254.59;4910496;29;20040;-61
2021/05/16 02:55:56;;;;;;;5.47;4.00;;;;;;;11.49;91.45;96249.06;4909953;29;20067;-61
2021/05/16 02:58:21;;;;;;;9.82;3.75;;;;;;;11.54;91.42;96253.44;4910035;29;20043;-62
2021/05/16 03:00:47;;;;;;;7.38;3.90;;;;;;;10.82;92.05;96144.84;4909968;29;20156;-60
2021/05/16 03:03:12;;;;;;;6.60;4.07;;;;;;;11.31;92.13;96225.28;4908957;29;20051;-60
2021/05/16 03:05:38;;;;;;;5.95;3.72;;;;;;;11.51;91.73;96246.69;4910380;29;20121;-61
2021/05/16 03:08:05;;;;;;;6.47;3.53;;;;;;;10.67;92.07;96158.69;4910518;29;20063;-61
2021/05/16 03:10:30;;;;;;;6.00;4.05;;;;;;;11.39;92.65;96254.59;4909480;29;20028;-61
2021/05/16 03:12:56;;;;;;;7.68;3.83;;;;;;;11.32;92.88;96251.81;4910001;29;20055;-61
2021/05/16 03:15:21;;;;;;;7.20;3.67;;;;;;;11.24;93.74;96259.31;4909469;29;20028;-62
2021/05/16 03:17:47;;;;;;;7.55;3.70;;;;;;;11.25;94.17;96255.38;4909720;29;20076;-60
2021/05/16 03:20:13;;;;;;;8.45;4.13;;;;;;;10.84;94.42;96195.94;4909211;29;20043;-60
2021/05/16 03:22:39;;;;;;;6.95;3.60;;;;;;;11.06;94.68;96202.28;4909567;29;20510;-61
2021/05/16 03:25:06;;;;;;;5.80;3.20;;;;;;;11.56;93.67;96248.25;4909844;29;20413;-61
2021/05/16 03:27:32;;;;;;;8.07;4.00;;;;;;;11.54;93.76;96211.84;4908021;29;20090;-61
2021/05/16 03:29:57;;;;;;;6.00;3.78;;;;;;;11.53;92.76;96202.72;4909667;29;20504;-62
2021/05/16 03:32:23;;;;;;;5.88;3.58;;;;;;;11.84;92.32;96262.16;4907517;29;20661;-64
2021/05/16 03:34:48;;;;;;;5.82;3.28;;;;;;;11.44;90.71;96176.56;4908237;29;20047;-61
2021/05/16 03:37:14;;;;;;;5.68;3.58;;;;;;;11.97;91.09;96275.25;4907468;29;20063;-63
2021/05/16 03:39:39;;;;;;;6.03;3.47;;;;;;;11.51;90.05;96141.28;4907509;29;20048;-62
2021/05/16 03:42:06;;;;;;;4.55;3.25;;;;;;;12.32;90.34;96251.38;4908523;29;20392;-63
2021/05/16 03:44:32;;;;;;;3.97;3.65;;;;;;;12.50;89.50;96252.94;4909715;29;20160;-64
2021/05/16 03:46:57;;;;;;;9.63;4.15;;;;;;;12.70;88.66;96256.81;4907663;29;20036;-62
2021/05/16 03:49:23;;;;;;;6.93;5.35;;;;;;;12.72;88.74;96253.63;4909633;29;20036;-62
2021/05/16 03:51:48;;;;;;;9.52;5.78;;;;;;;12.57;90.49;96263.19;4908750;29;20032;-64
2021/05/16 03:54:17;;;;;;;6.30;5.65;;;;;;;12.53;91.21;96268.00;4906671;29;20040;-62
2021/05/16 03:56:43;;;;;;;8.82;6.28;;;;;;;12.51;91.91;96264.81;4908660;29;20106;-62
2021/05/16 03:59:08;;;;;;;9.05;6.60;;;;;;;12.32;92.50;96240.28;4909429;29;20684;-62
2021/05/16 04:01:34;;;;;;;9.27;5.72;;;;;;;12.19;92.80;96220.47;4909184;29;20075;-62
2021/05/16 04:03:59;;;;;;;11.35;6.82;;;;;;;12.47;92.32;96220.38;4907596;29;20472;-62
2021/05/16 04:06:25;;;;;;;8.40;6.68;;;;;;;12.29;90.65;96136.34;4908860;29;20032;-62
2021/05/16 04:08:50;;;;;;;9.30;6.35;;;;;;;13.11;91.30;96266.19;4908898;29;20580;-61
2021/05/16 04:11:16;;;;;;;9.25;7.00;;;;;;;13.31;89.54;96264.47;4908671;29;20034;-61
2021/05/16 04:13:42;;;;;;;8.35;5.72;;;;;;;12.88;89.89;96162.25;4908673;29;20032;-63
2021/05/16 04:16:07;;;;;;;7.93;5.10;;;;;;;13.63;88.12;96234.44;4907303;29;20016;-62
2021/05/16 04:18:32;;;;;;;12.95;5.57;;;;;;;14.03;86.63;96232.09;4908621;29;20046;-62
2021/05/16 04:20:58;;;;;;;7.90;5.40;;;;;;;14.14;84.47;96230.00;4908502;29;20046;-61
2021/05/16 04:23:25;;;;;;;8.00;5.80;;;;;;;14.45;83.58;96259.56;4906889;29;20127;-62
2021/05/16 04:25:51;;;;;;;8.00;5.90;;;;;;;14.54;83.71;96257.84;4907572;29;20103;-62
2021/05/16 04:28:17;;;;;;;10.82;5.13;;;;;;;14.23;83.29;96196.88;4907051;29;20046;-62
2021/05/16 04:30:42;;;;;;;9.90;5.57;;;;;;;14.10;84.55;96170.78;4908620;29;20044;-62
2021/05/16 04:33:08;;;;;;;6.22;5.40;;;;;;;14.56;85.26;96263.00;4908980;29;20062;-63
2021/05/16 04:35:34;;;;;;;5.65;4.55;;;;;;;14.68;82.86;96245.78;4906872;29;20436;-62
2021/05/16 04:37:59;;;;;;;10.55;5.15;;;;;;;14.96;81.54;96267.72;4906798;29;20432;-61
2021/05/16 04:40:25;;;;;;;9.90;5.75;;;;;;;15.10;81.10;96259.16;4906468;29;20051;-62
2021/05/16 04:42:50;;;;;;;8.60;5.20;;;;;;;15.25;80.44;96268.94;4906796;29;20042;-62
2021/05/16 04:45:16;;;;;;;6.97;5.00;;;;;;;15.46;79.21;96251.91;4907884;29;20524;-63
2021/05/16 04:47:42;;;;;;;7.38;4.80;;;;;;;15.49;78.96;96251.06;4908154;29;20047;-62
2021/05/16 04:50:08;;;;;;;12.18;5.00;;;;;;;15.59;78.88;96255.72;4908056;29;20063;-62
2021/05/16 04:52:34;;;;;;;8.75;4.78;;;;;;;15.37;78.67;96209.75;4908095;29;20040;-64
2021/05/16 04:54:59;;;;;;;9.20;5.00;;;;;;;15.37;77.73;96189.44;4908206;29;20145;-61
2021/05/16 04:57:25;;;;;;;7.75;5.43;;;;;;;15.82;78.05;96258.53;4907841;29;20119;-61
2021/05/16 04:59:52;;;;;;;6.97;5.50;;;;;;;15.88;77.49;96262.44;4907802;29;20051;-63
2021/05/16 05:02:19;;;;;;;7.03;4.80;;;;;;;15.90;76.37;96248.81;4907566;29;20037;-63
2021/05/16 05:04:45;;;;;;;7.85;4.68;;;;;;;15.95;75.77;96256.72;4908085;29;20083;-61
2021/05/16 05:07:11;;;;;;;8.18;5.30;;;;;;;15.79;76.47;96231.44;4907369;29;20040;-62
2021/05/16 05:09:36;;;;;;;9.68;5.65;;;;;;;15.73;77.56;96249.91;4908301;29;20040;-62
2021/05/16 05:12:02;;;;;;;6.95;4.75;;;;;;;15.77;77.38;96264.63;4907405;29;20039;-62
2021/05/16 05:14:31;;;;;;;11.25;5.95;;;;;;;15.80;77.92;96266.56;4906039;29;20047;-62
2021/05/16 05:16:56;;;;;;;7.55;4.72;;;;;;;15.09;77.64;96165.56;4905835;29;20571;-62
2021/05/16 05:19:22;;;;;;;10.20;5.40;;;;;;;14.09;77.55;96008.47;4905971;29;20036;-61
2021/05/16 05:21:48;;;;;;;10.30;5.75;;;;;;;15.39;77.97;96224.13;4906993;29;20095;-62
2021/05/16 05:24:13;;;;;;;7.47;4.90;;;;;;;15.15;79.13;96191.75;4907808;29;20167;-62
2021/05/16 05:26:39;;;;;;;8.20;5.38;;;;;;;13.80;79.34;95948.00;4907242;29;20420;-62
2021/05/16 05:29:05;;;;;;;7.75;5.25;;;;;;;15.77;77.41;96261.81;4907974;29;20115;-62
2021/05/16 05:31:31;;;;;;;5.30;4.05;;;;;;;16.03;75.56;96262.97;4905470;29;20366;-61
2021/05/16 05:33:56;;;;;;;6.90;4.18;;;;;;;16.16;75.23;96256.38;4906108;29;20032;-62
2021/05/16 05:36:22;;;;;;;8.98;4.80;;;;;;;16.35;74.51;96258.44;4907058;29;20036;-61
2021/05/16 05:38:47;;;;;;;7.07;4.80;;;;;;;15.64;73.68;96140.78;4905858;29;20039;-61
2021/05/16 05:41:14;;;;;;;8.70;5.40;;;;;;;16.54;73.43;96263.28;4906947;29;20036;-62
2021/05/16 05:43:40;;;;;;;6.00;4.90;;;;;;;16.05;74.07;96188.72;4905808;29;20075;-61
2021/05/16 05:46:05;;;;;;;5.90;5.07;;;;;;;16.61;73.31;96260.34;4905534;29;20040;-62
2021/05/16 05:48:31;;;;;;;7.00;5.28;;;;;;;16.57;73.12;96258.84;4907217;29;20118;-61
2021/05/16 05:50:57;;;;;;;10.20;5.07;;;;;;;16.88;72.37;96268.63;4905257;29;20054;-61
2021/05/16 05:53:22;;;;;;;9.63;5.82;;;;;;;17.04;71.95;96265.88;4905425;29;20244;-61
2021/05/16 05:55:48;;;;;;;7.78;5.80;;;;;;;16.92;71.02;96212.59;4906994;29;20539;-61
2021/05/16 05:58:13;;;;;;;7.22;5.78;;;;;;;17.30;70.93;96250.16;4906285;29;20638;-62
2021/05/16 06:00:39;;;;;;;8.23;5.70;;;;;;;17.34;70.12;96232.03;4906102;29;20055;-62
2021/05/16 06:03:04;;;;;;;7.03;5.82;;;;;;;17.65;69.27;96243.78;4906990;29;20414;-62
2021/05/16 06:05:30;;;;;;;13.07;6.38;;;;;;;18.03;68.23;96265.28;4906068;29;20492;-61
2021/05/16 06:07:56;;;;;;;8.10;5.80;;;;;;;18.28;67.40;96259.03;4907016;29;20563;-61
2021/05/16 06:10:23;;;;;;;7.80;5.95;;;;;;;18.52;65.47;96260.44;4906353;29;20028;-61
2021/05/16 06:12:49;;;;;;;6.57;5.30;;;;;;;18.52;64.22;96268.84;4906896;29;20043;-62
2021/05/16 06:15:15;;;;;;;5.68;4.72;;;;;;;18.90;64.06;96267.00;4905370;29;20032;-63
2021/05/16 06:17:40;;;;;;;7.28;4.75;;;;;;;18.95;62.08;96258.03;4908003;29;20036;-61
2021/05/16 06:20:06;;;;;;;4.70;4.05;;;;;;;19.10;60.61;96304.13;4910819;29;20492;-61
2021/05/16 06:22:33;;;;;;;5.38;4.47;;;;;;;19.37;60.64;96258.84;4910246;29;20064;-61
2021/05/16 06:24:58;;;;;;;5.22;4.05;;;;;;;19.39;59.20;96226.25;4911088;29;20522;-61
2021/05/16 06:27:24;;;;;;;4.40;3.90;;;;;;;20.24;56.07;96258.09;4908707;29;20040;-61
2021/05/16 06:29:49;;;;;;;5.65;4.40;;;;;;;20.66;54.79;96256.66;4910323;29;20039;-62
2021/05/16 06:32:15;;;;;;;5.10;4.28;;;;;;;20.44;54.95;96205.16;4910248;29;20048;-62
2021/05/16 06:34:41;;;;;;;5.05;4.03;;;;;;;20.66;53.59;96233.38;4910649;29;20046;-62
2021/05/16 06:37:06;;;;;;;8.40;5.15;;;;;;;21.45;52.92;96249.78;4910310;29;20040;-62
2021/05/16 06:39:32;;;;;;;5.68;3.97;;;;;;;21.49;52.37;96250.41;4908868;29;20043;-63
2021/05/16 06:41:58;;;;;;;6.13;4.95;;;;;;;20.68;55.16;96253.38;4910120;29;20553;-61
2021/05/16 06:44:24;;;;;;;7.53;5.18;;;;;;;20.51;56.58;96254.78;4910336;29;20111;-60
2021/05/16 06:46:50;;;;;;;5.53;4.60;;;;;;;20.46;56.97;96252.53;4909862;29;20135;-60
2021/05/16 06:49:16;;;;;;;7.93;5.60;;;;;;;20.16;58.76;96255.97;4896172;29;20115;-61
2021/05/16 06:51:41;;;;;;;6.47;4.60;;;;;;;20.41;57.01;96255.91;4909584;29;20161;-62
2021/05/16 06:54:07;;;;;;;6.72;4.60;;;;;;;20.68;55.85;96261.81;4909996;29;20518;-61
2021/05/16 06:56:36;;;;;;;4.25;3.92;;;;;;;21.35;54.05;96256.59;4910215;29;20068;-61
2021/05/16 06:59:03;;;;;;;5.53;4.22;;;;;;;21.68;52.63;96252.88;4908558;29;20138;-62
2021/05/16 07:01:28;;;;;;;4.68;3.95;;;;;;;21.57;51.13;96186.88;4909646;29;20231;-61
2021/05/16 07:03:53;;;;;;;5.47;4.57;;;;;;;21.39;53.13;96258.03;4909905;29;20169;-63
2021/05/16 07:06:19;;;;;;;6.55;4.55;;;;;;;21.10;52.92;96237.81;4908217;29;20145;-62
2021/05/16 07:08:47;;;;;;;5.65;4.72;;;;;;;20.91;52.96;96193.84;4909930;29;20575;-63
2021/05/16 07:11:13;;;;;;;7.43;4.38;;;;;;;20.67;52.72;96201.94;4909490;29;20044;-62
2021/05/16 07:13:38;;;;;;;7.40;4.10;;;;;;;21.13;52.79;96256.59;4909929;29;20078;-63
2021/05/16 07:16:04;;;;;;;4.40;3.92;;;;;;;20.57;53.16;96210.75;4908112;29;20043;-62
2021/05/16 07:18:30;;;;;;;4.65;4.25;;;;;;;21.06;53.16;96256.06;4910035;29;20091;-62
2021/05/16 07:20:55;;;;;;;4.20;3.80;;;;;;;21.39;53.48;96258.03;4909592;29;20123;-63
2021/05/16 07:23:21;;;;;;;4.18;3.83;;;;;;;20.53;54.63;96202.44;4907682;29;20120;-61
2021/05/16 07:25:46;;;;;;;5.60;4.47;;;;;;;20.96;54.05;96247.56;4909449;29;20040;-62
2021/05/16 07:28:12;;;;;;;7.85;4.53;;;;;;;20.34;54.48;96178.22;4910123;29;20043;-62
2021/05/16 07:30:38;;;;;;;5.78;4.40;;;;;;;20.60;54.78;96254.84;4907922;29;20036;-61
2021/05/16 07:33:04;;;;;;;5.53;4.20;;;;;;;20.41;55.83;96255.91;4910232;29;20050;-61
2021/05/16 07:35:29;;;;;;;4.60;4.20;;;;;;;20.35;56.23;96257.75;4907872;29;20034;-62
2021/05/16 07:37:55;;;;;;;6.80;4.70;;;;;;;20.33;56.18;96254.59;4910002;29;20040;-62
2021/05/16 07:40:20;;;;;;;8.00;4.38;;;;;;;20.28;56.30;96264.38;4907765;29;20044;-63
2021/05/16 07:42:47;;;;;;;5.85;4.60;;;;;;;19.92;57.00;96263.16;4909577;29;20144;-62
2021/05/16 07:45:13;;;;;;;7.28;3.95;;;;;;;19.59;58.34;96256.97;4851927;29;20151;-63
2021/05/16 07:47:39;;;;;;;4.82;4.38;;;;;;;19.33;58.31;96210.44;4853209;29;20120;-61
2021/05/16 07:50:07;;;;;;;7.07;4.07;;;;;;;19.54;58.89;96243.47;4851387;29;20417;-61
2021/05/16 07:52:32;;;;;;;5.57;4.40;;;;;;;19.61;59.67;96256.53;4853042;29;20125;-61
2021/05/16 07:54:58;;;;;;;14.52;7.53;;;;;;;19.44;58.82;96245.38;4852939;29;20112;-61
2021/05/16 07:57:23;;;;;;;7.28;4.90;;;;;;;19.66;58.70;96255.97;4852194;29;20097;-62
2021/05/16 07:59:49;;;;;;;9.77;5.15;;;;;;;19.33;59.06;96216.81;4853183;29;20041;-64
2021/05/16 08:02:14;;;;;;;4.50;4.10;;;;;;;19.53;59.45;96259.56;4851967;29;20048;-61
2021/05/16 08:04:40;;;;;;;5.60;4.20;;;;;;;19.36;59.16;96272.09;4852764;29;20497;-61
2021/05/16 08:07:05;;;;;;;5.72;4.90;;;;;;;19.26;59.61;96263.97;4852443;29;20042;-62
2021/05/16 08:09:31;;;;;;;6.53;4.47;;;;;;;19.32;59.70;96265.81;4857424;29;20065;-63
2021/05/16 08:11:56;;;;;;;5.57;4.50;;;;;;;19.53;59.17;96270.81;4871048;29;20060;-63
2021/05/16 08:14:21;;;;;;;7.25;4.85;;;;;;;19.70;58.68;96268.66;4869463;29;20047;-62
2021/05/16 08:16:48;;;;;;;10.13;4.90;;;;;;;19.80;60.28;96275.19;4869257;29;20037;-61
2021/05/16 08:19:13;;;;;;;7.57;4.30;;;;;;;19.62;61.85;96275.75;4869741;29;20123;-64
2021/05/16 08:21:39;;;;;;;6.95;4.28;;;;;;;19.40;62.14;96250.31;4868917;29;20228;-62
2021/05/16 08:24:06;;;;;;;5.63;5.13;;;;;;;19.35;61.13;96236.03;4869513;29;20060;-62
2021/05/16 08:26:32;;;;;;;7.82;3.75;;;;;;;19.29;60.30;96280.75;4870804;29;20142;-61
2021/05/16 08:28:58;;;;;;;3.75;3.45;;;;;;;18.39;62.29;96220.31;4869704;29;20123;-61
2021/05/16 08:31:23;;;;;;;3.47;3.17;;;;;;;18.71;62.48;96269.94;4871015;29;20134;-61
2021/05/16 08:33:49;;;;;;;4.75;3.45;;;;;;;18.97;61.31;96275.22;4870923;29;20468;-61
2021/05/16 08:36:14;;;;;;;3.95;2.70;;;;;;;18.98;59.75;96274.00;4869170;29;20548;-62
2021/05/16 08:38:39;;;;;;;6.97;2.80;;;;;;;19.16;59.85;96285.50;4870731;29;20043;-62
2021/05/16 08:41:05;;;;;;;4.20;2.75;;;;;;;19.14;59.07;96273.91;4870169;29;20033;-60
2021/05/16 08:43:31;;;;;;;2.45;2.33;;;;;;;19.43;55.93;96271.91;4869607;29;20493;-62
2021/05/16 08:45:56;;;;;;;2.72;2.53;;;;;;;19.77;54.63;96268.47;4869372;29;20136;-61
2021/05/16 08:48:22;;;;;;;2.60;2.40;;;;;;;19.80;53.38;96266.75;4870632;29;20128;-60
2021/05/16 08:50:48;;;;;;;2.78;2.58;;;;;;;19.85;53.05;96257.78;4870308;29;20079;-61
2021/05/16 08:53:13;;;;;;;2.83;2.55;;;;;;;20.31;51.75;96254.28;4870862;29;20056;-61
2021/05/16 08:55:39;;;;;;;2.53;2.42;;;;;;;20.36;51.85;96253.72;4869913;29;20049;-61
2021/05/16 08:58:05;;;;;;;3.00;2.70;;;;;;;20.24;52.67;96257.31;4870755;29;20044;-63
2021/05/16 09:00:32;;;;;;;2.78;2.50;;;;;;;20.16;52.85;96258.78;4870171;29;20048;-61
2021/05/16 09:03:02;;;;;;;3.25;2.70;;;;;;;20.27;53.85;96267.66;4870796;29;20458;-61
2021/05/16 09:05:31;;;;;;;4.03;3.70;;;;;;;20.46;54.25;96267.41;4870397;29;20041;-64
2021/05/16 09:08:02;;;;;;;3.83;3.42;;;;;;;20.79;52.21;96248.16;4868920;29;20044;-61
2021/05/16 09:10:28;;;;;;;3.30;3.00;;;;;;;20.38;52.24;96217.44;4856557;29;20110;-61
2021/05/16 09:13:06;;;;;;;4.63;3.03;;;;;;;20.67;51.23;96144.84;4851857;29;20045;-61
2021/05/16 09:15:32;;;;;;;4.13;3.75;;;;;;;21.94;49.49;96248.63;4851457;29;20037;-62
2021/05/16 09:17:58;;;;;;;4.65;3.05;;;;;;;22.27;50.33;96244.03;4852303;29;20060;-61
2021/05/16 09:20:24;;;;;;;4.25;3.88;;;;;;;22.14;47.50;96208.75;4851522;29;20061;-61
2021/05/16 09:22:52;;;;;;;3.70;3.50;;;;;;;22.34;48.24;96243.75;4851188;29;20136;-60
2021/05/16 09:25:31;;;;;;;3.20;3.00;;;;;;;22.40;48.71;96252.38;4849706;29;20079;-61
2021/05/16 09:28:05;;;;;;;3.75;3.40;;;;;;;22.78;46.80;96249.19;4851972;29;20067;-62
2021/05/16 09:30:33;;;;;;;3.67;3.42;;;;;;;23.17;43.43;96248.25;4849571;29;20040;-61
2021/05/16 09:33:03;;;;;;;3.45;3.13;;;;;;;23.47;40.72;96244.47;4851369;29;20041;-60
2021/05/16 09:35:43;;;;;;;3.40;3.10;;;;;;;23.20;39.61;96211.34;4851526;29;20033;-60
2021/05/16 09:38:19;;;;;;;3.40;3.10;;;;;;;23.46;40.74;96234.38;4851615;29;20132;-61
2021/05/16 09:40:53;;;;;;;3.30;3.17;;;;;;;23.48;39.55;96226.22;4851265;29;20527;-61
2021/05/16 09:43:19;;;;;;;3.00;2.88;;;;;;;23.54;41.02;96232.81;4852053;29;20069;-61
2021/05/16 09:45:57;;;;;;;3.63;3.42;;;;;;;23.42;40.02;96236.59;4849688;29;20532;-61
2021/05/16 09:48:34;;;;;;;6.90;5.90;;;;;;;22.98;42.14;96239.00;4851920;29;20055;-60
2021/05/16 09:51:09;;;;;;;4.20;3.90;;;;;;;21.55;45.30;96237.28;4851409;29;20081;-61
2021/05/16 09:54:05;;;;;;;3.60;3.40;;;;;;;21.71;47.97;96235.03;4853478;29;20474;-61
2021/05/16 09:56:43;;;;;;;4.05;3.75;;;;;;;21.93;47.37;96195.50;4849221;29;20061;-62
2021/05/16 09:59:11;;;;;;;4.80;3.85;;;;;;;22.07;46.65;96195.72;4854918;29;20573;-61
2021/05/16 10:01:37;;;;;;;4.97;4.57;;;;;;;22.00;48.30;96241.13;4854847;29;20289;-62
2021/05/16 10:04:05;;;;;;;4.22;3.92;;;;;;;21.30;47.51;96139.66;4854686;29;20140;-61
2021/05/16 10:06:32;;;;;;;4.13;3.58;;;;;;;21.09;49.73;96230.59;4852643;29;20508;-61
2021/05/16 10:08:58;;;;;;;3.40;3.20;;;;;;;19.63;53.20;96234.38;4856276;29;20093;-61
2021/05/16 10:11:30;;;;;;;4.18;3.45;;;;;;;19.30;56.01;96233.81;4873082;29;20033;-62
2021/05/16 10:14:03;;;;;;;3.67;3.38;;;;;;;18.59;61.53;96240.59;4871727;29;20033;-62
2021/05/16 10:16:38;;;;;;;4.32;3.20;;;;;;;17.76;66.73;96245.13;4871352;29;20160;-62
2021/05/16 10:19:05;;;;;;;4.70;3.65;;;;;;;17.78;70.67;96253.84;4872553;29;20051;-62
2021/05/16 10:21:30;;;;;;;5.25;3.53;;;;;;;18.10;68.92;96248.25;4872574;29;20622;-63
2021/05/16 10:24:13;;;;;;;5.78;4.05;;;;;;;18.06;67.89;96241.19;4872821;29;20544;-61
2021/05/16 10:26:43;;;;;;;5.33;4.03;;;;;;;16.42;68.53;95981.53;4871383;29;20037;-62
2021/05/16 10:29:15;;;;;;;4.15;3.80;;;;;;;18.01;72.64;96231.28;4871896;29;20048;-62
2021/05/16 10:31:47;;;;;;;4.40;3.40;;;;;;;17.85;74.54;96250.91;4872556;29;20082;-61
2021/05/16 10:34:25;;;;;;;4.20;3.70;;;;;;;18.20;74.97;96235.22;4871412;29;20032;-61
2021/05/16 10:36:51;;;;;;;5.43;4.35;;;;;;;18.20;72.64;96246.44;4872486;29;20048;-62
2021/05/16 10:39:35;;;;;;;5.65;3.60;;;;;;;18.17;70.92;96236.09;4872658;29;20047;-63
2021/05/16 10:42:33;;;;;;;5.38;3.70;;;;;;;18.63;70.21;96241.31;4872697;29;20505;-61
2021/05/16 10:45:02;;;;;;;4.22;3.83;;;;;;;19.51;68.21;96221.91;4871176;29;20048;-61
2021/05/16 10:47:52;;;;;;;4.82;3.90;;;;;;;20.01;65.88;96218.28;4870935;29;20429;-61
2021/05/16 10:50:24;;;;;;;8.68;4.93;;;;;;;20.15;69.96;96217.84;4872764;29;20112;-62
2021/05/16 10:53:09;;;;;;;3.75;3.45;;;;;;;20.18;70.62;96200.06;4871234;29;20045;-61
2021/05/16 10:55:39;;;;;;;4.90;4.07;;;;;;;20.45;64.29;96215.19;4870496;29;20045;-63
2021/05/16 10:58:06;;;;;;;3.88;3.58;;;;;;;20.16;61.87;96188.47;4873014;29;20041;-61
2021/05/16 11:00:31;;;;;;;3.47;3.28;;;;;;;20.59;60.22;96222.34;4871962;29;20041;-61
2021/05/16 11:03:10;;;;;;;3.75;3.42;;;;;;;20.81;64.57;96223.94;4870793;29;20097;-61
2021/05/16 11:05:49;;;;;;;4.05;3.72;;;;;;;21.35;61.78;96228.41;4872538;29;20065;-61
2021/05/16 11:08:20;;;;;;;4.30;3.38;;;;;;;21.58;60.58;96220.25;4870964;29;20037;-61
2021/05/16 11:10:51;;;;;;;3.70;3.40;;;;;;;21.86;56.69;96219.13;4856995;29;20056;-61
2021/05/16 11:13:28;;;;;;;4.75;3.30;;;;;;;22.11;54.51;96218.91;4854447;29;20037;-62
2021/05/16 11:15:57;;;;;;;3.90;3.70;;;;;;;21.12;59.49;96221.22;4852217;29;20147;-63
2021/05/16 11:18:31;;;;;;;4.18;3.47;;;;;;;22.85;55.86;96214.97;4854283;29;20045;-64
2021/05/16 11:21:01;;;;;;;3.95;3.58;;;;;;;22.93;54.81;96187.97;4853988;29;20132;-62
2021/05/16 11:23:32;;;;;;;3.42;3.22;;;;;;;23.03;56.68;96203.69;4853842;29;20412;-61
2021/05/16 11:26:03;;;;;;;4.40;3.90;;;;;;;23.12;50.21;96178.22;4853497;29;20066;-60
2021/05/16 11:28:30;;;;;;;4.00;3.70;;;;;;;23.04;51.75;96199.59;4854138;29;20060;-61
2021/05/16 11:30:56;;;;;;;3.80;3.60;;;;;;;23.28;51.74;96153.28;4853827;29;20041;-62
2021/05/16 11:33:30;;;;;;;3.83;3.53;;;;;;;23.32;48.04;96119.16;4854291;29;20053;-63